Aeroporto :
LOGIN :

Iscrizione | Disclaimer

   EN    FR    IT 

 










Sommario :    VFR   VFR Marginale   IFR   IFR Intensivo   IFR Molto Intensivo
Visibilità : 
Base nubi : 
>= 8 km
>= 3000ft
5 / 8 km
1000 / 3000 ft
1500m / 5 km
500 / 1000 ft
800 / 1500m
200 / 500 ft
< 800m
< 200 ft
Simboli :   Temporali  Nebbia  Neve Forte  Precipitazioni Forti  Vento > 20 kt
SIGMETs :   Varie  Temporali  Ghiacco  Turbolenza  Onda orograficha  Ceneri Vulcaniche






- Altitudine del aeroporto : 1036 ft
- Codice IATA : ERF


EDDE - Erfurt

ULTIMO METAR :
  • 041320Z 35002KT CAVOK 05/M02 Q0990 NOSIG

METARs OBSOLETI :
  • 041250Z 06004KT 020V100 CAVOK 06/M01 Q0990 NOSIG
  • 041220Z 09006KT 050V130 CAVOK 06/M02 Q0990 NOSIG
  • 041150Z 16004KT 070V210 CAVOK 05/M02 Q0990 NOSIG
  • 041120Z 16010KT CAVOK 05/M02 Q0990 NOSIG
  • 041050Z 17010KT CAVOK 04/M02 Q0990 NOSIG

TAF TAF EDDE
Valido dal 04 a 12 ore il 05 a 12 ore UTC


041100Z 0412/0512 16009KT 9999 FEW045
BECMG 0414/0416 11004KT
BECMG 0503/0505 21006KT



MetMap, La meteo Aeronautica in un colpo d'occhio ! - Copyright ORBIFLY Dicembre 2007 - Disclaimer

ORBIFLY MET'MAP TEAM :

Programmazione e sviluppo : Alexandra Zaïnal
Concezione : Baudouin d'Aumeries
Aiuto per la programmazione : Marc-Olivier Méhu
Supporto tecnico e logistico : Manuel Goepfert
Aiuto per la traduzione : Arnaldo La Scala

Contatto : metmap@orbifly.com




FONTI E CREDITI :

   NOAA